Time;durP1;ratioP1;P1;durP2;ratioP2;P2;SDS_P1;SDS_P2;PMS_P1;PMS_P2;Temp;Humidity;BMP_temperature;BMP_pressure;BME280_temperature;BME280_humidity;BME280_pressure;Samples;Min_cycle;Max_cycle;Signal;HPM_P1;HPM_P2
2021/05/19 00:09:13;;;;;;;45.75;34.53;;;;;;;13.84;100.00;98127.23;1744401;79;22756;-51
2021/05/19 00:11:41;;;;;;;42.58;33.90;;;;;;;13.81;100.00;98127.52;1741862;82;20977;-50
2021/05/19 00:14:09;;;;;;;43.55;35.70;;;;;;;13.80;100.00;98129.38;1731735;82;21723;-49
2021/05/19 00:16:35;;;;;;;39.18;33.90;;;;;;;13.81;100.00;98126.17;1728051;82;20938;-51
2021/05/19 00:19:03;;;;;;;42.05;36.05;;;;;;;13.81;100.00;98115.33;1739959;82;20957;-52
2021/05/19 00:21:31;;;;;;;42.13;36.42;;;;;;;13.83;100.00;98121.45;1736302;82;20917;-50
2021/05/19 00:24:00;;;;;;;43.58;35.48;;;;;;;13.82;100.00;98122.45;1735137;82;20933;-51
2021/05/19 00:26:27;;;;;;;40.63;35.48;;;;;;;13.83;100.00;98121.45;1733482;82;21676;-50
2021/05/19 00:28:56;;;;;;;45.88;36.48;;;;;;;13.83;100.00;98122.81;1729661;81;20946;-51
2021/05/19 00:31:24;;;;;;;46.05;36.95;;;;;;;13.84;100.00;98125.87;1702001;82;21573;-52
2021/05/19 00:33:51;;;;;;;42.50;34.67;;;;;;;13.84;100.00;98124.52;1723510;82;20962;-52
2021/05/19 00:36:18;;;;;;;42.58;34.10;;;;;;;13.84;100.00;98124.02;1735452;82;21471;-50
2021/05/19 00:38:45;;;;;;;42.65;33.83;;;;;;;13.83;100.00;98127.73;1731531;82;21262;-50
2021/05/19 00:41:13;;;;;;;43.45;35.30;;;;;;;13.84;100.00;98126.73;1725922;82;20929;-50
2021/05/19 00:43:39;;;;;;;43.73;35.30;;;;;;;13.85;100.00;98119.48;1734440;82;20930;-51
2021/05/19 00:46:07;;;;;;;37.40;33.33;;;;;;;13.84;100.00;98112.33;1743771;82;20934;-52
2021/05/19 00:48:35;;;;;;;40.35;34.85;;;;;;;13.83;100.00;98107.91;1736867;82;20958;-52
2021/05/19 00:51:03;;;;;;;43.60;36.08;;;;;;;13.82;100.00;98100.78;1731657;82;21585;-50
2021/05/19 00:53:32;;;;;;;39.20;34.92;;;;;;;13.80;100.00;98103.64;1698145;82;21145;-51
2021/05/19 00:56:00;;;;;;;41.02;36.33;;;;;;;13.78;100.00;98099.34;1736964;82;21005;-52
2021/05/19 00:58:27;;;;;;;41.58;37.08;;;;;;;13.79;100.00;98106.47;1730429;82;20977;-53
2021/05/19 01:00:54;;;;;;;37.95;33.90;;;;;;;13.76;100.00;98106.76;1730085;82;21522;-51
2021/05/19 01:03:29;;;;;;;41.25;34.88;;;;;;;13.73;100.00;98107.88;1729205;82;20986;-56
2021/05/19 01:06:00;;;;;;;39.78;35.38;;;;;;;13.73;100.00;98111.08;1731777;82;20926;-56
2021/05/19 01:11:21;;;;;;;37.85;31.87;;;;;;;13.72;100.00;98111.58;1723349;82;21454;-57
2021/05/19 01:13:48;;;;;;;37.63;31.62;;;;;;;13.71;100.00;98109.02;1718787;82;20946;-56
2021/05/19 01:16:16;;;;;;;40.08;30.82;;;;;;;13.71;100.00;98118.50;1719868;82;21041;-55
2021/05/19 01:18:44;;;;;;;35.78;31.75;;;;;;;13.71;100.00;98119.86;1721161;82;20966;-56
2021/05/19 01:21:30;;;;;;;35.70;32.00;;;;;;;13.71;100.00;98119.86;1718973;82;21439;-58
2021/05/19 01:23:57;;;;;;;35.52;30.15;;;;;;;13.71;100.00;98119.86;1697271;82;20994;-57
2021/05/19 01:26:24;;;;;;;35.13;30.35;;;;;;;13.71;100.00;98119.86;1715042;82;20934;-58
2021/05/19 01:28:51;;;;;;;35.25;29.85;;;;;;;13.71;100.00;98115.80;1723150;82;21637;-58
2021/05/19 01:31:18;;;;;;;38.35;31.40;;;;;;;13.70;100.00;98112.73;1722554;82;21462;-57
2021/05/19 01:33:48;;;;;;;33.58;30.08;;;;;;;13.71;100.00;98119.86;1719730;82;20954;-58
2021/05/19 01:36:14;;;;;;;36.15;30.30;;;;;;;13.72;100.00;98117.00;1720594;82;20954;-59
2021/05/19 01:38:41;;;;;;;34.38;30.12;;;;;;;13.72;100.00;98118.86;1720499;82;20938;-56
2021/05/19 01:41:09;;;;;;;36.10;32.20;;;;;;;13.72;100.00;98112.94;1714549;82;20980;-57
2021/05/19 01:43:38;;;;;;;37.53;31.73;;;;;;;13.72;100.00;98113.44;1718664;82;20935;-59
2021/05/19 01:46:07;;;;;;;37.03;31.52;;;;;;;13.73;100.00;98112.44;1719582;82;21359;-58
2021/05/19 01:48:35;;;;;;;38.88;31.82;;;;;;;13.73;100.00;98113.79;1720031;82;21005;-56
2021/05/19 01:51:03;;;;;;;38.23;32.13;;;;;;;13.73;100.00;98112.44;1722107;82;20950;-57
2021/05/19 01:53:32;;;;;;;36.73;31.73;;;;;;;13.74;100.00;98112.79;1719347;82;21069;-57
2021/05/19 01:55:59;;;;;;;38.90;32.17;;;;;;;13.74;100.00;98114.14;1691395;82;21522;-58
2021/05/19 01:58:28;;;;;;;38.30;31.75;;;;;;;13.73;100.00;98121.92;1711729;82;21613;-57
2021/05/19 02:00:55;;;;;;;43.70;32.90;;;;;;;13.75;100.00;98129.44;1718437;82;20946;-57
2021/05/19 02:03:24;;;;;;;42.67;34.18;;;;;;;13.74;100.00;98127.69;1713110;82;20938;-58
2021/05/19 02:06:01;;;;;;;38.70;33.60;;;;;;;13.75;100.00;98128.08;1714801;82;21066;-57
2021/05/19 02:08:30;;;;;;;39.03;32.08;;;;;;;13.75;100.00;98133.00;1725953;82;21514;-58
2021/05/19 02:10:56;;;;;;;38.33;32.60;;;;;;;13.76;100.00;98131.14;1719941;82;20891;-58
2021/05/19 02:13:24;;;;;;;39.67;32.20;;;;;;;13.76;100.00;98128.44;1697342;82;21490;-58
2021/05/19 02:15:53;;;;;;;40.60;33.53;;;;;;;13.78;100.00;98127.78;1716490;82;21421;-58
2021/05/19 02:18:21;;;;;;;38.75;32.05;;;;;;;13.78;100.00;98130.49;1721616;82;21644;-57
2021/05/19 02:20:49;;;;;;;41.60;33.20;;;;;;;13.79;100.00;98130.84;1721987;82;20974;-58
2021/05/19 02:23:16;;;;;;;41.77;32.53;;;;;;;13.81;100.00;98131.59;1720965;82;20890;-58
2021/05/19 02:25:43;;;;;;;38.60;31.75;;;;;;;13.82;100.00;98138.72;1720181;82;21541;-59
2021/05/19 02:28:10;;;;;;;41.88;32.78;;;;;;;13.82;100.00;98126.02;1729244;82;21457;-58
2021/05/19 02:30:48;;;;;;;38.10;32.23;;;;;;;13.82;100.00;98130.59;1721467;82;21812;-61
2021/05/19 02:33:17;;;;;;;40.55;31.95;;;;;;;13.82;100.00;98136.01;1718702;82;20919;-58
2021/05/19 02:35:44;;;;;;;41.92;34.08;;;;;;;13.84;100.00;98140.78;1649182;82;21486;-59
2021/05/19 02:38:12;;;;;;;43.50;34.00;;;;;;;13.84;100.00;98143.48;1721468;82;20970;-58
2021/05/19 02:40:39;;;;;;;49.20;36.23;;;;;;;13.85;100.00;98142.52;1714411;81;21076;-58
2021/05/19 02:43:07;;;;;;;42.88;33.75;;;;;;;13.85;100.00;98143.88;1715053;82;21002;-58
2021/05/19 02:45:35;;;;;;;42.90;35.05;;;;;;;13.85;100.00;98142.52;1714415;82;20989;-56
2021/05/19 02:48:03;;;;;;;42.30;33.67;;;;;;;13.85;100.00;98141.16;1725945;82;20915;-56
2021/05/19 02:50:31;;;;;;;40.03;32.00;;;;;;;13.84;100.00;98142.14;1721813;82;21000;-57
2021/05/19 02:52:58;;;;;;;38.20;30.72;;;;;;;13.83;100.00;98140.42;1719190;82;21057;-57
2021/05/19 02:55:25;;;;;;;37.83;31.73;;;;;;;13.84;100.00;98145.70;1718996;82;21606;-57
2021/05/19 02:57:52;;;;;;;38.40;31.33;;;;;;;13.82;100.00;98146.34;1721418;82;20958;-56
2021/05/19 03:00:19;;;;;;;38.85;31.87;;;;;;;13.81;100.00;98150.55;1715888;82;21573;-57
2021/05/19 03:02:47;;;;;;;36.30;30.77;;;;;;;13.83;100.00;98156.68;1706581;82;20958;-57
2021/05/19 03:05:13;;;;;;;37.25;30.77;;;;;;;13.83;100.00;98153.97;1720475;82;21007;-57
2021/05/19 03:07:40;;;;;;;33.38;29.15;;;;;;;13.82;100.00;98160.39;1717910;82;21091;-58
2021/05/19 03:10:10;;;;;;;35.23;30.20;;;;;;;13.83;100.00;98162.10;1730403;81;20949;-58
2021/05/19 03:12:36;;;;;;;34.45;29.23;;;;;;;13.82;100.00;98154.97;1736903;82;20910;-58
2021/05/19 03:15:06;;;;;;;35.33;30.43;;;;;;;13.82;100.00;98154.97;1733856;82;21533;-58
2021/05/19 03:17:34;;;;;;;33.20;28.20;;;;;;;13.81;100.00;98153.27;1733934;82;20953;-57
2021/05/19 03:20:01;;;;;;;33.08;29.48;;;;;;;13.80;100.00;98154.27;1732974;82;21046;-58
2021/05/19 03:22:28;;;;;;;35.05;28.90;;;;;;;13.79;100.00;98157.94;1729304;82;20922;-58
2021/05/19 03:24:55;;;;;;;35.48;29.52;;;;;;;13.79;100.00;98155.23;1731421;82;21465;-57
2021/05/19 03:27:22;;;;;;;34.23;28.87;;;;;;;13.78;100.00;98154.88;1731132;82;20941;-56
2021/05/19 03:29:48;;;;;;;33.60;29.37;;;;;;;13.80;100.00;98165.10;1726900;82;20941;-58
2021/05/19 03:32:15;;;;;;;35.13;28.62;;;;;;;13.79;100.00;98158.80;1727667;82;21015;-57
2021/05/19 03:34:43;;;;;;;39.38;30.30;;;;;;;13.81;100.00;98165.45;1735710;82;20906;-57
2021/05/19 03:37:10;;;;;;;37.08;31.90;;;;;;;13.80;100.00;98165.10;1734539;82;20922;-58
2021/05/19 03:39:37;;;;;;;40.65;32.70;;;;;;;13.80;100.00;98167.81;1740854;82;20988;-58
2021/05/19 03:42:05;;;;;;;39.40;30.88;;;;;;;13.81;100.00;98174.94;1738097;82;20942;-56
2021/05/19 03:44:32;;;;;;;41.42;32.63;;;;;;;13.82;100.00;98172.09;1734370;82;21033;-59
2021/05/19 03:47:00;;;;;;;42.95;31.52;;;;;;;13.84;100.00;98171.94;1734258;82;20950;-57
2021/05/19 03:49:28;;;;;;;38.88;31.75;;;;;;;13.84;100.00;98180.06;1740520;82;20906;-56
2021/05/19 03:51:55;;;;;;;46.95;32.93;;;;;;;13.85;100.00;98173.68;1724697;82;21263;-57
2021/05/19 03:54:22;;;;;;;49.10;37.35;;;;;;;13.85;100.00;98177.75;1728991;82;20965;-57
2021/05/19 03:56:50;;;;;;;53.60;37.23;;;;;;;13.88;100.00;98176.10;1736082;82;21311;-57
2021/05/19 03:59:17;;;;;;;55.35;36.75;;;;;;;13.90;100.00;98176.80;1728186;82;21022;-58
2021/05/19 04:01:44;;;;;;;56.75;35.63;;;;;;;13.91;100.00;98174.98;1732300;82;20894;-57
2021/05/19 04:04:11;;;;;;;49.73;37.23;;;;;;;13.93;100.00;98168.42;1657070;83;20944;-56
2021/05/19 04:06:37;;;;;;;49.20;38.35;;;;;;;13.94;100.00;98163.35;1734896;82;20966;-58
2021/05/19 04:09:06;;;;;;;52.25;35.43;;;;;;;13.96;100.00;98170.87;1733227;81;20999;-57
2021/05/19 04:11:33;;;;;;;45.25;35.50;;;;;;;13.97;100.00;98165.80;1723571;82;20938;-58
2021/05/19 04:14:00;;;;;;;42.93;33.83;;;;;;;13.99;100.00;98161.59;1722043;82;20981;-58
2021/05/19 04:16:27;;;;;;;44.38;33.95;;;;;;;14.00;100.00;98157.88;1725647;82;21171;-56
2021/05/19 04:18:54;;;;;;;40.10;33.18;;;;;;;14.02;100.00;98156.77;1723081;82;20929;-57
2021/05/19 04:21:22;;;;;;;49.85;41.13;;;;;;;14.04;100.00;98165.59;1724726;82;21704;-58
2021/05/19 04:23:48;;;;;;;42.45;34.80;;;;;;;14.05;100.00;98167.31;1732741;82;20942;-59
2021/05/19 04:26:17;;;;;;;41.80;32.88;;;;;;;14.06;100.00;98174.47;1725664;82;21382;-58
2021/05/19 04:28:44;;;;;;;42.78;33.18;;;;;;;14.07;100.00;98174.83;1716503;82;20982;-59
2021/05/19 04:31:11;;;;;;;43.25;31.68;;;;;;;14.10;100.00;98174.53;1720599;82;21013;-60
2021/05/19 04:33:38;;;;;;;40.45;33.15;;;;;;;14.12;100.00;98171.20;1724186;82;21045;-59
2021/05/19 04:36:05;;;;;;;39.60;31.65;;;;;;;14.17;100.00;98170.80;1731074;82;20922;-59
2021/05/19 04:38:32;;;;;;;42.45;34.05;;;;;;;14.22;100.00;98167.64;1724164;82;20949;-58
2021/05/19 04:40:59;;;;;;;41.63;33.53;;;;;;;14.25;100.00;98170.09;1718535;82;21016;-58
2021/05/19 04:43:26;;;;;;;40.63;34.23;;;;;;;14.29;100.00;98166.96;1721993;82;20926;-60
2021/05/19 04:45:53;;;;;;;37.28;31.62;;;;;;;14.37;100.00;98163.54;1717368;82;21034;-59
2021/05/19 04:48:20;;;;;;;41.68;34.88;;;;;;;14.46;100.00;98161.34;1720774;82;20965;-59
2021/05/19 04:50:47;;;;;;;46.60;37.13;;;;;;;14.57;100.00;98159.89;1719902;82;21824;-59
2021/05/19 04:53:14;;;;;;;40.60;34.33;;;;;;;14.71;100.00;98163.20;1723430;82;21032;-59
2021/05/19 04:55:42;;;;;;;45.12;35.65;;;;;;;14.87;100.00;98166.20;1718568;82;21108;-57
2021/05/19 04:58:09;;;;;;;43.83;35.80;;;;;;;14.98;100.00;98168.77;1725532;82;21021;-59
2021/05/19 05:00:36;;;;;;;47.05;37.23;;;;;;;15.07;100.00;98162.45;1729313;82;20914;-58
2021/05/19 05:03:08;;;;;;;51.02;39.20;;;;;;;15.17;100.00;98161.94;1729847;82;21479;-61
2021/05/19 05:05:35;;;;;;;47.25;38.95;;;;;;;15.23;100.00;98163.72;1723492;82;20966;-60
2021/05/19 05:08:03;;;;;;;49.13;38.98;;;;;;;15.26;100.00;98161.58;1719761;82;20965;-59
2021/05/19 05:10:30;;;;;;;67.40;52.67;;;;;;;15.32;100.00;98168.29;1729385;81;20995;-59
2021/05/19 05:12:57;;;;;;;57.08;43.02;;;;;;;15.37;100.00;98169.56;1731219;82;20977;-58
2021/05/19 05:15:24;;;;;;;57.20;42.65;;;;;;;15.47;100.00;98174.98;1738943;82;20933;-59
2021/05/19 05:17:51;;;;;;;58.78;44.30;;;;;;;15.51;100.00;98173.69;1740732;82;21609;-59
2021/05/19 05:20:19;;;;;;;59.67;43.70;;;;;;;15.56;100.00;98176.83;1731691;82;20973;-60
2021/05/19 05:22:48;;;;;;;58.50;44.95;;;;;;;15.58;100.00;98180.24;1734644;82;21945;-58
2021/05/19 05:25:17;;;;;;;60.63;45.95;;;;;;;15.59;100.00;98181.95;1732855;82;21013;-60
2021/05/19 05:27:48;;;;;;;60.25;44.77;;;;;;;15.59;100.00;98173.80;1729593;82;20938;-60
2021/05/19 05:30:16;;;;;;;59.80;47.20;;;;;;;15.61;100.00;98177.24;1731999;82;21106;-61
2021/05/19 05:32:43;;;;;;;63.85;46.00;;;;;;;15.62;100.00;98170.80;1729058;82;21409;-58
2021/05/19 05:35:10;;;;;;;65.28;47.45;;;;;;;15.70;100.00;98170.93;1733633;82;21050;-60
2021/05/19 05:37:37;;;;;;;60.85;46.28;;;;;;;15.79;100.00;98177.86;1716251;82;21360;-60
2021/05/19 05:40:06;;;;;;;57.10;45.75;;;;;;;15.88;100.00;98167.45;1726719;82;20953;-50
2021/05/19 05:42:33;;;;;;;63.45;48.35;;;;;;;15.96;100.00;98164.83;1725150;82;21053;-50
2021/05/19 05:45:00;;;;;;;56.58;45.67;;;;;;;16.05;100.00;98172.09;1723834;82;20989;-49
2021/05/19 05:47:27;;;;;;;55.48;43.30;;;;;;;16.10;100.00;98180.66;1726666;81;21597;-49
2021/05/19 05:49:56;;;;;;;55.05;44.58;;;;;;;16.12;100.00;98182.70;1729335;82;21871;-55
2021/05/19 05:52:24;;;;;;;56.28;44.95;;;;;;;16.17;100.00;98170.88;1724609;82;20961;-52
2021/05/19 05:54:51;;;;;;;55.15;45.10;;;;;;;16.23;100.00;98178.42;1726410;82;20973;-52
2021/05/19 05:57:18;;;;;;;52.40;43.28;;;;;;;16.27;100.00;98184.94;1728645;81;20946;-52
2021/05/19 05:59:45;;;;;;;52.40;43.08;;;;;;;16.31;100.00;98183.64;1729620;82;21059;-50
2021/05/19 06:02:12;;;;;;;49.08;41.80;;;;;;;16.34;100.00;98188.25;1728870;81;20981;-54
2021/05/19 06:04:39;;;;;;;46.92;38.17;;;;;;;16.37;100.00;98184.38;1725523;82;20946;-52
2021/05/19 06:07:06;;;;;;;43.42;36.25;;;;;;;16.42;100.00;98182.06;1730839;82;21060;-50
2021/05/19 06:09:35;;;;;;;47.00;38.30;;;;;;;16.47;100.00;98187.91;1721885;82;21025;-49
2021/05/19 06:12:04;;;;;;;40.85;35.60;;;;;;;16.53;100.00;98183.20;1726826;82;21159;-49
2021/05/19 06:14:31;;;;;;;37.70;32.38;;;;;;;16.60;100.00;98184.80;1731857;81;20993;-50
2021/05/19 06:17:02;;;;;;;37.70;31.27;;;;;;;16.66;98.76;98194.56;1731279;82;21814;-48
2021/05/19 06:19:31;;;;;;;39.45;33.02;;;;;;;16.73;97.91;98197.08;1732261;82;21000;-50
2021/05/19 06:21:58;;;;;;;41.77;36.45;;;;;;;16.80;97.40;98193.73;1726143;82;21001;-50
2021/05/19 06:24:26;;;;;;;41.80;36.20;;;;;;;16.91;96.61;98205.75;1721825;82;21173;-50
2021/05/19 06:26:55;;;;;;;45.43;38.15;;;;;;;16.98;95.58;98201.38;1732195;82;20981;-51
2021/05/19 06:29:22;;;;;;;45.55;38.30;;;;;;;16.99;95.13;98209.90;1730403;82;21002;-49
2021/05/19 06:31:48;;;;;;;42.95;36.40;;;;;;;17.00;94.66;98206.19;1726028;82;20953;-54
2021/05/19 06:34:15;;;;;;;34.30;30.72;;;;;;;16.99;93.67;98212.63;1732616;81;20918;-51
2021/05/19 06:36:46;;;;;;;26.10;23.25;;;;;;;17.00;93.62;98213.00;1727046;80;21405;-54
2021/05/19 06:39:11;;;;;;;25.23;21.35;;;;;;;17.06;93.03;98219.18;1733131;81;20922;-50
2021/05/19 06:41:38;;;;;;;22.60;20.17;;;;;;;17.15;92.42;98219.62;1739639;82;20938;-55
2021/05/19 06:44:06;;;;;;;27.35;21.40;;;;;;;17.22;91.54;98227.50;1724841;81;21112;-52
2021/05/19 06:49:02;;;;;;;30.30;26.80;;;;;;;17.38;90.46;98231.39;1747870;79;22882;-51
2021/05/19 06:51:24;;;;;;;38.23;28.25;;;;;;;17.42;89.97;98233.64;1723197;82;20972;-52
2021/05/19 06:53:51;;;;;;;28.17;22.60;;;;;;;17.51;89.55;98234.55;1692815;82;21493;-53
2021/05/19 06:56:18;;;;;;;24.00;20.50;;;;;;;17.64;88.90;98239.09;1693151;82;21605;-52
2021/05/19 06:58:46;;;;;;;25.65;22.93;;;;;;;17.79;87.35;98240.27;1697867;82;20946;-52
2021/05/19 07:01:13;;;;;;;25.02;21.97;;;;;;;17.93;84.10;98239.31;1692660;82;21493;-52
2021/05/19 07:03:40;;;;;;;24.02;21.50;;;;;;;18.01;82.46;98242.11;1692725;82;20929;-53
2021/05/19 07:06:07;;;;;;;22.07;19.07;;;;;;;18.06;81.48;98258.85;1695328;82;21936;-51
2021/05/19 07:08:35;;;;;;;19.05;15.65;;;;;;;18.08;81.54;98254.08;1694032;82;20969;-54
2021/05/19 07:11:02;;;;;;;19.82;17.80;;;;;;;18.10;81.25;98251.17;1693275;82;21020;-51
2021/05/19 07:13:29;;;;;;;22.17;19.90;;;;;;;18.13;80.55;98257.69;1692241;82;20973;-59
2021/05/19 07:15:56;;;;;;;25.90;23.22;;;;;;;18.14;80.62;98258.03;1697090;82;21012;-60
2021/05/19 07:18:24;;;;;;;21.60;19.40;;;;;;;18.16;80.49;98250.02;1693264;82;21675;-59
2021/05/19 07:20:51;;;;;;;21.65;19.55;;;;;;;18.23;80.13;98253.83;1695829;83;20953;-60
2021/05/19 07:23:18;;;;;;;20.72;18.70;;;;;;;18.26;80.16;98249.39;1692906;82;21109;-61
2021/05/19 07:25:46;;;;;;;21.48;19.25;;;;;;;18.28;80.08;98246.01;1696539;82;21335;-62
2021/05/19 07:28:13;;;;;;;16.20;14.70;;;;;;;18.38;80.26;98235.48;1699561;82;20945;-61
2021/05/19 07:30:42;;;;;;;14.30;13.00;;;;;;;18.47;79.52;98241.30;1698201;82;21075;-61
2021/05/19 07:33:10;;;;;;;13.15;11.93;;;;;;;18.55;78.80;98249.03;1670592;84;21576;-61
2021/05/19 07:35:38;;;;;;;12.78;11.45;;;;;;;18.62;77.41;98249.22;1661398;83;20996;-60
2021/05/19 07:38:08;;;;;;;11.25;10.15;;;;;;;18.64;77.18;98252.62;1657471;84;21629;-60
2021/05/19 07:40:36;;;;;;;12.10;9.15;;;;;;;18.61;76.49;98255.70;1657785;83;21071;-61
2021/05/19 07:43:02;;;;;;;10.03;8.98;;;;;;;18.64;75.98;98251.78;1658337;84;21365;-60
2021/05/19 07:45:30;;;;;;;10.75;9.43;;;;;;;18.64;75.86;98255.36;1661282;85;20990;-61
2021/05/19 07:47:57;;;;;;;14.58;9.45;;;;;;;18.68;75.48;98267.70;1654333;85;21036;-60
2021/05/19 07:50:24;;;;;;;9.30;8.30;;;;;;;18.72;74.84;98268.23;1658475;84;21035;-62
2021/05/19 07:52:51;;;;;;;8.93;8.13;;;;;;;18.79;74.26;98267.40;1633967;86;21035;-61
2021/05/19 07:55:27;;;;;;;8.80;7.90;;;;;;;18.83;73.65;98263.84;1650848;84;21052;-60
2021/05/19 07:58:00;;;;;;;12.98;8.88;;;;;;;18.89;72.79;98262.31;1660177;85;21004;-60
2021/05/19 08:00:45;;;;;;;10.93;9.45;;;;;;;18.90;71.94;98261.28;1647157;84;21013;-63
2021/05/19 08:02:55;;;;;;;9.53;8.18;;;;;;;18.84;71.21;98272.37;1657586;84;21496;-59
2021/05/19 08:05:24;;;;;;;8.78;7.97;;;;;;;18.80;70.83;98267.77;1647376;84;21044;-60
2021/05/19 08:07:51;;;;;;;10.43;7.80;;;;;;;18.78;70.51;98276.62;1659151;84;21107;-60
2021/05/19 08:10:18;;;;;;;7.28;6.55;;;;;;;18.77;70.47;98274.06;1649087;85;21635;-59
2021/05/19 08:13:48;;;;;;;9.35;6.90;;;;;;;18.84;69.80;98273.73;1784648;77;22615;-56
2021/05/19 08:16:15;;;;;;;6.67;4.10;;;;;;;18.81;69.49;98274.94;1771877;79;21007;-59
2021/05/19 08:18:43;;;;;;;4.35;3.95;;;;;;;18.83;68.32;98278.34;1721912;82;21696;-56
2021/05/19 08:21:11;;;;;;;5.95;3.85;;;;;;;18.84;68.67;98285.52;1688336;83;21536;-59
2021/05/19 08:23:38;;;;;;;5.67;3.00;;;;;;;18.92;69.00;98286.58;1720523;81;20996;-58
2021/05/19 08:26:05;;;;;;;5.35;4.10;;;;;;;18.98;68.56;98283.19;1721420;81;20971;-57
2021/05/19 08:28:33;;;;;;;3.83;2.77;;;;;;;18.98;68.64;98281.81;1721307;82;20951;-58
2021/05/19 08:31:00;;;;;;;5.30;2.92;;;;;;;18.98;68.16;98284.55;1722524;81;21178;-55
2021/05/19 08:33:27;;;;;;;6.75;3.15;;;;;;;19.02;68.26;98284.56;1699763;83;21028;-55
2021/05/19 08:35:55;;;;;;;3.72;3.05;;;;;;;19.11;68.15;98284.91;1720222;81;20933;-58
2021/05/19 08:38:21;;;;;;;3.30;2.65;;;;;;;19.19;67.44;98284.94;1692874;83;21552;-58
2021/05/19 08:40:49;;;;;;;2.17;1.92;;;;;;;19.29;66.89;98288.38;1718814;82;20951;-55
2021/05/19 08:43:16;;;;;;;2.47;2.00;;;;;;;19.38;64.87;98294.18;1720800;81;21152;-57
2021/05/19 08:45:45;;;;;;;2.62;2.22;;;;;;;19.45;64.25;98282.08;1720837;82;21513;-59
2021/05/19 08:48:12;;;;;;;5.58;1.95;;;;;;;19.51;64.20;98288.75;1721214;81;20945;-57
2021/05/19 08:50:39;;;;;;;2.83;1.42;;;;;;;19.59;63.71;98290.14;1724747;81;21605;-57
2021/05/19 08:53:09;;;;;;;2.92;1.75;;;;;;;19.60;61.84;98293.20;1699526;82;20922;-57
2021/05/19 08:55:37;;;;;;;2.72;1.95;;;;;;;19.56;62.13;98294.56;1700930;82;21165;-59
2021/05/19 08:58:04;;;;;;;3.77;2.10;;;;;;;19.55;62.41;98298.33;1700439;82;21004;-58
2021/05/19 09:00:33;;;;;;;3.45;2.45;;;;;;;19.50;63.05;98297.98;1699978;82;20958;-60
2021/05/19 09:03:14;;;;;;;2.15;1.80;;;;;;;19.55;63.94;98298.33;1700819;82;20969;-61
2021/05/19 09:05:44;;;;;;;3.47;1.80;;;;;;;19.64;63.22;98305.52;1721275;81;21080;-60
2021/05/19 09:08:18;;;;;;;5.10;2.27;;;;;;;19.73;63.67;98309.98;1721878;81;20961;-60
2021/05/19 09:10:58;;;;;;;3.02;1.90;;;;;;;19.83;63.95;98310.67;1719603;82;20997;-60
2021/05/19 09:13:36;;;;;;;4.20;1.72;;;;;;;19.91;63.24;98313.05;1672024;84;20931;-60
2021/05/19 09:16:04;;;;;;;3.15;2.15;;;;;;;19.96;62.63;98303.81;1680841;83;21412;-59
2021/05/19 09:18:53;;;;;;;2.80;2.17;;;;;;;20.00;62.56;98310.66;1681306;83;21005;-59
2021/05/19 09:21:37;;;;;;;1.80;1.70;;;;;;;20.00;61.48;98307.92;1741954;80;21605;-60
2021/05/19 09:24:11;;;;;;;2.92;2.12;;;;;;;19.92;61.46;98307.43;1742150;80;20938;-59
2021/05/19 09:27:03;;;;;;;3.37;1.80;;;;;;;19.87;61.42;98298.36;1741172;80;21048;-58
2021/05/19 09:29:34;;;;;;;2.60;1.65;;;;;;;19.83;61.29;98295.63;1699702;83;21543;-60
2021/05/19 09:32:09;;;;;;;3.58;1.65;;;;;;;19.82;61.30;98293.92;1738102;80;20922;-60
2021/05/19 09:34:41;;;;;;;4.78;2.15;;;;;;;19.83;61.46;98299.73;1704682;82;21069;-60
2021/05/19 09:37:24;;;;;;;4.45;1.90;;;;;;;19.84;62.04;98296.47;1740534;81;21024;-59
2021/05/19 09:39:59;;;;;;;4.00;1.90;;;;;;;19.85;61.61;98297.66;1704676;82;21500;-60
2021/05/19 09:42:29;;;;;;;1.67;1.40;;;;;;;19.78;61.71;98293.91;1740843;80;21449;-61
2021/05/19 09:44:57;;;;;;;2.22;1.30;;;;;;;19.76;61.27;98289.62;1732767;80;21056;-61
2021/05/19 09:47:42;;;;;;;1.92;1.35;;;;;;;19.72;60.75;98297.85;1688733;83;21757;-60
2021/05/19 09:50:15;;;;;;;4.05;1.60;;;;;;;19.67;61.36;98295.63;1701803;84;21039;-60
2021/05/19 09:53:09;;;;;;;3.33;1.35;;;;;;;19.61;61.73;98292.20;1704989;82;20906;-59
2021/05/19 09:55:39;;;;;;;1.40;1.27;;;;;;;19.56;60.39;98290.46;1741075;81;20989;-60
2021/05/19 09:58:05;;;;;;;2.12;1.27;;;;;;;19.50;60.24;98295.25;1706536;82;21444;-59
2021/05/19 10:00:32;;;;;;;1.20;1.20;;;;;;;19.52;61.39;98295.92;1740579;81;21051;-59
2021/05/19 10:03:01;;;;;;;5.40;1.40;;;;;;;19.56;61.02;98292.68;1706465;82;20939;-60
2021/05/19 10:05:45;;;;;;;2.22;1.27;;;;;;;19.59;61.22;98292.88;1741294;80;20906;-61
2021/05/19 10:08:07;;;;;;;2.90;1.52;;;;;;;19.66;61.07;98299.39;1741516;81;20933;-60
2021/05/19 10:10:35;;;;;;;4.50;1.60;;;;;;;19.70;59.17;98304.84;1706678;82;21127;-61
2021/05/19 10:13:03;;;;;;;3.42;1.00;;;;;;;19.71;59.56;98297.00;1728376;81;21104;-62
2021/05/19 10:15:31;;;;;;;2.25;1.40;;;;;;;19.78;58.34;98309.48;1710775;82;21009;-59
2021/05/19 10:18:06;;;;;;;3.10;1.30;;;;;;;19.85;58.63;98313.22;1711095;82;20906;-60
2021/05/19 10:20:36;;;;;;;3.95;1.35;;;;;;;19.92;59.05;98302.44;1710542;82;20920;-64
2021/05/19 10:23:05;;;;;;;5.53;1.32;;;;;;;19.98;59.17;98307.25;1709369;82;20995;-61
2021/05/19 10:25:38;;;;;;;2.45;1.32;;;;;;;20.01;58.40;98317.84;1710039;82;21132;-59
2021/05/19 10:28:18;;;;;;;2.62;1.27;;;;;;;20.02;58.01;98316.80;1709981;82;21021;-62
2021/05/19 10:30:50;;;;;;;3.17;1.55;;;;;;;20.00;57.90;98309.29;1707196;82;20946;-61
2021/05/19 10:33:41;;;;;;;3.10;2.15;;;;;;;19.97;57.79;98311.84;1709278;82;21405;-59
2021/05/19 10:36:32;;;;;;;2.83;1.40;;;;;;;20.02;57.49;98316.80;1710169;82;21698;-59
2021/05/19 10:39:16;;;;;;;2.27;1.50;;;;;;;20.08;57.41;98314.26;1674443;83;21060;-59
2021/05/19 10:41:47;;;;;;;2.27;1.25;;;;;;;20.18;56.96;98312.67;1709069;82;20946;-61
2021/05/19 10:44:16;;;;;;;2.97;1.20;;;;;;;20.30;56.29;98312.68;1710078;82;21428;-60
2021/05/19 10:47:09;;;;;;;1.30;1.20;;;;;;;20.40;56.03;98309.75;1710521;82;20975;-62
2021/05/19 10:50:01;;;;;;;2.92;1.65;;;;;;;20.46;55.42;98313.67;1711194;82;21363;-61
2021/05/19 10:52:37;;;;;;;2.80;1.30;;;;;;;20.53;55.42;98317.45;1708726;82;21508;-60
2021/05/19 10:57:57;;;;;;;1.85;1.20;;;;;;;20.59;54.93;98307.15;1710713;82;20926;-61
2021/05/19 11:00:25;;;;;;;6.97;1.52;;;;;;;20.62;55.13;98319.14;1675989;85;21003;-61
2021/05/19 11:03:02;;;;;;;4.00;1.57;;;;;;;20.67;55.03;98313.98;1674701;83;20947;-59
2021/05/19 11:05:37;;;;;;;2.77;1.30;;;;;;;20.77;53.88;98311.02;1710476;82;21090;-60
2021/05/19 11:08:11;;;;;;;1.57;1.20;;;;;;;20.87;52.71;98309.77;1705670;82;20966;-60
2021/05/19 11:11:04;;;;;;;1.17;1.00;;;;;;;20.99;52.08;98305.30;1711168;82;21108;-60
2021/05/19 11:13:19;;;;;;;4.10;1.45;;;;;;;21.04;52.28;98306.95;1651994;84;21001;-60
2021/05/19 11:21:16;;;;;;;4.22;1.37;;;;;;;21.34;51.90;98307.50;1748244;80;21346;-62
2021/05/19 11:24:07;;;;;;;1.80;1.20;;;;;;;21.37;52.01;98303.05;1749238;80;20989;-60
2021/05/19 11:26:46;;;;;;;2.75;1.30;;;;;;;21.38;51.89;98307.48;1749053;80;21469;-62
2021/05/19 11:29:14;;;;;;;1.00;0.90;;;;;;;21.34;52.08;98308.87;1749004;80;20957;-61
2021/05/19 11:31:46;;;;;;;1.40;1.10;;;;;;;21.27;53.11;98305.12;1746005;80;21138;-60
2021/05/19 11:34:14;;;;;;;1.80;1.17;;;;;;;21.24;53.22;98310.95;1748371;80;20910;-61
2021/05/19 11:36:53;;;;;;;2.85;1.10;;;;;;;21.18;52.32;98311.69;1748845;80;20969;-64
2021/05/19 11:39:39;;;;;;;2.92;1.40;;;;;;;21.08;52.81;98311.05;1750049;80;21093;-59
2021/05/19 11:42:23;;;;;;;2.67;1.40;;;;;;;21.00;52.55;98309.73;1748557;80;21318;-60
2021/05/19 11:44:56;;;;;;;3.37;1.25;;;;;;;20.96;52.97;98311.13;1748546;80;21056;-60
2021/05/19 11:47:36;;;;;;;6.35;2.10;;;;;;;20.93;54.12;98311.83;1745007;80;20969;-63
2021/05/19 11:50:17;;;;;;;3.75;1.62;;;;;;;20.87;54.70;98317.98;1748984;80;21457;-62
2021/05/19 11:52:58;;;;;;;5.53;1.42;;;;;;;20.81;55.22;98320.08;1749129;80;20957;-61